sensor_id;sensor_type;location;lat;lon;timestamp;temperature;humidity
33269;DHT22;19640;50.944;5.260;2023-02-15T00:01:41;1.00;99.90
33269;DHT22;19640;50.944;5.260;2023-02-15T00:04:08;1.00;99.90
33269;DHT22;19640;50.944;5.260;2023-02-15T00:06:35;1.10;99.90
33269;DHT22;19640;50.944;5.260;2023-02-15T00:09:01;1.50;99.90
33269;DHT22;19640;50.944;5.260;2023-02-15T00:11:26;1.70;99.90
33269;DHT22;19640;50.944;5.260;2023-02-15T00:14:18;1.70;99.90
33269;DHT22;19640;50.944;5.260;2023-02-15T00:16:45;1.80;99.90
33269;DHT22;19640;50.944;5.260;2023-02-15T00:19:12;1.80;99.90
33269;DHT22;19640;50.944;5.260;2023-02-15T00:21:39;1.80;99.90
33269;DHT22;19640;50.944;5.260;2023-02-15T00:24:07;2.00;99.90
33269;DHT22;19640;50.944;5.260;2023-02-15T00:26:33;1.90;99.90
33269;DHT22;19640;50.944;5.260;2023-02-15T00:29:00;2.10;99.90
33269;DHT22;19640;50.944;5.260;2023-02-15T00:31:27;2.10;99.90
33269;DHT22;19640;50.944;5.260;2023-02-15T00:33:53;2.20;99.90
33269;DHT22;19640;50.944;5.260;2023-02-15T00:36:18;2.30;99.90
33269;DHT22;19640;50.944;5.260;2023-02-15T00:38:44;2.10;99.90
33269;DHT22;19640;50.944;5.260;2023-02-15T00:41:10;2.00;99.90
33269;DHT22;19640;50.944;5.260;2023-02-15T00:43:36;1.70;99.90
33269;DHT22;19640;50.944;5.260;2023-02-15T00:46:04;1.60;99.90
33269;DHT22;19640;50.944;5.260;2023-02-15T00:48:30;1.30;99.90
33269;DHT22;19640;50.944;5.260;2023-02-15T00:50:58;1.10;99.90
33269;DHT22;19640;50.944;5.260;2023-02-15T00:53:25;1.00;99.90
33269;DHT22;19640;50.944;5.260;2023-02-15T00:55:51;0.80;99.90
33269;DHT22;19640;50.944;5.260;2023-02-15T00:58:16;1.00;99.90
33269;DHT22;19640;50.944;5.260;2023-02-15T01:00:44;1.20;99.90
33269;DHT22;19640;50.944;5.260;2023-02-15T01:03:11;1.20;99.90
33269;DHT22;19640;50.944;5.260;2023-02-15T01:05:37;1.20;99.90
33269;DHT22;19640;50.944;5.260;2023-02-15T01:08:03;1.30;99.90
33269;DHT22;19640;50.944;5.260;2023-02-15T01:10:29;1.30;99.90
33269;DHT22;19640;50.944;5.260;2023-02-15T01:12:55;1.20;99.90
33269;DHT22;19640;50.944;5.260;2023-02-15T01:15:22;1.00;99.90
33269;DHT22;19640;50.944;5.260;2023-02-15T01:17:48;1.00;99.90
33269;DHT22;19640;50.944;5.260;2023-02-15T01:20:20;0.90;99.90
33269;DHT22;19640;50.944;5.260;2023-02-15T01:22:45;0.80;99.90
33269;DHT22;19640;50.944;5.260;2023-02-15T01:25:11;1.00;99.90
33269;DHT22;19640;50.944;5.260;2023-02-15T01:27:37;1.10;99.90
33269;DHT22;19640;50.944;5.260;2023-02-15T01:30:03;1.10;99.90
33269;DHT22;19640;50.944;5.260;2023-02-15T01:32:30;1.10;99.90
33269;DHT22;19640;50.944;5.260;2023-02-15T01:34:56;0.90;99.90
33269;DHT22;19640;50.944;5.260;2023-02-15T01:37:22;0.80;99.90
33269;DHT22;19640;50.944;5.260;2023-02-15T01:39:48;0.70;99.90
33269;DHT22;19640;50.944;5.260;2023-02-15T01:42:13;0.70;99.90
33269;DHT22;19640;50.944;5.260;2023-02-15T01:47:50;0.70;99.90
33269;DHT22;19640;50.944;5.260;2023-02-15T01:50:29;0.80;99.90
33269;DHT22;19640;50.944;5.260;2023-02-15T01:53:03;0.80;99.90
33269;DHT22;19640;50.944;5.260;2023-02-15T01:55:34;0.60;99.90
33269;DHT22;19640;50.944;5.260;2023-02-15T01:58:01;0.40;99.90
33269;DHT22;19640;50.944;5.260;2023-02-15T02:00:28;0.20;99.90
33269;DHT22;19640;50.944;5.260;2023-02-15T02:02:55;0.30;99.90
33269;DHT22;19640;50.944;5.260;2023-02-15T02:05:21;0.50;99.90
33269;DHT22;19640;50.944;5.260;2023-02-15T02:07:49;0.70;99.90
33269;DHT22;19640;50.944;5.260;2023-02-15T02:10:19;0.90;99.90
33269;DHT22;19640;50.944;5.260;2023-02-15T02:12:47;1.00;99.90
33269;DHT22;19640;50.944;5.260;2023-02-15T02:15:14;1.00;99.90
33269;DHT22;19640;50.944;5.260;2023-02-15T02:26:27;0.90;99.90
33269;DHT22;19640;50.944;5.260;2023-02-15T02:29:11;0.80;99.90
33269;DHT22;19640;50.944;5.260;2023-02-15T02:37:37;0.90;99.90
33269;DHT22;19640;50.944;5.260;2023-02-15T02:42:40;1.10;99.90
33269;DHT22;19640;50.944;5.260;2023-02-15T02:45:51;1.10;99.90
33269;DHT22;19640;50.944;5.260;2023-02-15T02:48:24;1.00;99.90
33269;DHT22;19640;50.944;5.260;2023-02-15T02:50:50;0.90;99.90
33269;DHT22;19640;50.944;5.260;2023-02-15T02:53:16;0.70;99.90
33269;DHT22;19640;50.944;5.260;2023-02-15T02:55:46;0.40;99.90
33269;DHT22;19640;50.944;5.260;2023-02-15T02:58:23;0.30;99.90
33269;DHT22;19640;50.944;5.260;2023-02-15T03:01:06;0.30;99.90
33269;DHT22;19640;50.944;5.260;2023-02-15T03:03:37;0.10;99.90
33269;DHT22;19640;50.944;5.260;2023-02-15T03:06:08;0.10;99.90
33269;DHT22;19640;50.944;5.260;2023-02-15T03:08:45;0.10;99.90
33269;DHT22;19640;50.944;5.260;2023-02-15T03:11:12;-0.10;99.90
33269;DHT22;19640;50.944;5.260;2023-02-15T03:13:39;-0.20;99.90
33269;DHT22;19640;50.944;5.260;2023-02-15T03:16:05;-0.20;99.90
33269;DHT22;19640;50.944;5.260;2023-02-15T03:18:54;0.10;99.90
33269;DHT22;19640;50.944;5.260;2023-02-15T03:24:14;0.90;99.90
33269;DHT22;19640;50.944;5.260;2023-02-15T03:26:44;0.90;99.90
33269;DHT22;19640;50.944;5.260;2023-02-15T03:29:11;0.90;99.90
33269;DHT22;19640;50.944;5.260;2023-02-15T03:31:41;0.80;99.90
33269;DHT22;19640;50.944;5.260;2023-02-15T03:34:11;0.80;99.90
33269;DHT22;19640;50.944;5.260;2023-02-15T03:36:50;0.90;99.90
33269;DHT22;19640;50.944;5.260;2023-02-15T03:39:20;0.90;99.90
33269;DHT22;19640;50.944;5.260;2023-02-15T03:44:27;0.00;99.90
33269;DHT22;19640;50.944;5.260;2023-02-15T03:46:58;-0.10;99.90
33269;DHT22;19640;50.944;5.260;2023-02-15T03:49:36;-0.20;99.90
33269;DHT22;19640;50.944;5.260;2023-02-15T03:52:04;-0.30;99.90
33269;DHT22;19640;50.944;5.260;2023-02-15T03:54:33;-0.30;99.90
33269;DHT22;19640;50.944;5.260;2023-02-15T03:57:24;-0.20;99.90
33269;DHT22;19640;50.944;5.260;2023-02-15T04:00:23;0.00;99.90
33269;DHT22;19640;50.944;5.260;2023-02-15T04:03:12;-0.10;99.90
33269;DHT22;19640;50.944;5.260;2023-02-15T04:05:45;0.10;99.90
33269;DHT22;19640;50.944;5.260;2023-02-15T04:08:11;0.30;99.90
33269;DHT22;19640;50.944;5.260;2023-02-15T04:10:37;0.40;99.90
33269;DHT22;19640;50.944;5.260;2023-02-15T04:13:22;0.30;99.90
33269;DHT22;19640;50.944;5.260;2023-02-15T04:15:48;0.40;99.90
33269;DHT22;19640;50.944;5.260;2023-02-15T04:18:35;0.50;99.90
33269;DHT22;19640;50.944;5.260;2023-02-15T04:21:20;0.50;99.90
33269;DHT22;19640;50.944;5.260;2023-02-15T04:24:05;0.60;99.90
33269;DHT22;19640;50.944;5.260;2023-02-15T04:26:50;0.50;99.90
33269;DHT22;19640;50.944;5.260;2023-02-15T04:29:22;0.30;99.90
33269;DHT22;19640;50.944;5.260;2023-02-15T04:31:49;0.10;99.90
33269;DHT22;19640;50.944;5.260;2023-02-15T04:34:15;-0.10;99.90
33269;DHT22;19640;50.944;5.260;2023-02-15T04:36:41;-0.30;99.90
33269;DHT22;19640;50.944;5.260;2023-02-15T04:39:07;-0.30;99.90
33269;DHT22;19640;50.944;5.260;2023-02-15T04:41:33;-0.40;99.90
33269;DHT22;19640;50.944;5.260;2023-02-15T04:43:59;-0.40;99.90
33269;DHT22;19640;50.944;5.260;2023-02-15T04:46:26;-0.40;99.90
33269;DHT22;19640;50.944;5.260;2023-02-15T04:48:52;-0.40;99.90
33269;DHT22;19640;50.944;5.260;2023-02-15T04:51:18;-0.20;99.90
33269;DHT22;19640;50.944;5.260;2023-02-15T04:53:44;-0.10;99.90
33269;DHT22;19640;50.944;5.260;2023-02-15T04:56:10;-0.20;99.90
33269;DHT22;19640;50.944;5.260;2023-02-15T04:58:36;-0.40;99.90
33269;DHT22;19640;50.944;5.260;2023-02-15T05:01:02;-0.50;99.90
33269;DHT22;19640;50.944;5.260;2023-02-15T05:03:28;-0.50;99.90
33269;DHT22;19640;50.944;5.260;2023-02-15T05:05:54;-0.60;99.90
33269;DHT22;19640;50.944;5.260;2023-02-15T05:08:19;-0.60;99.90
33269;DHT22;19640;50.944;5.260;2023-02-15T05:10:48;-0.50;99.90
33269;DHT22;19640;50.944;5.260;2023-02-15T05:13:13;-0.50;99.90
33269;DHT22;19640;50.944;5.260;2023-02-15T05:15:39;-0.50;99.90
33269;DHT22;19640;50.944;5.260;2023-02-15T05:18:05;-0.50;99.90
33269;DHT22;19640;50.944;5.260;2023-02-15T05:20:31;-0.40;99.90
33269;DHT22;19640;50.944;5.260;2023-02-15T05:22:57;-0.30;99.90
33269;DHT22;19640;50.944;5.260;2023-02-15T05:25:23;-0.30;99.90
33269;DHT22;19640;50.944;5.260;2023-02-15T05:28:10;-0.30;99.90
33269;DHT22;19640;50.944;5.260;2023-02-15T05:30:49;-0.30;99.90
33269;DHT22;19640;50.944;5.260;2023-02-15T05:33:16;-0.40;99.90
33269;DHT22;19640;50.944;5.260;2023-02-15T05:35:41;-0.50;99.90
33269;DHT22;19640;50.944;5.260;2023-02-15T05:38:07;-0.70;99.90
33269;DHT22;19640;50.944;5.260;2023-02-15T05:40:33;-0.80;99.90
33269;DHT22;19640;50.944;5.260;2023-02-15T05:42:58;-0.80;99.90
33269;DHT22;19640;50.944;5.260;2023-02-15T05:45:24;-0.80;99.90
33269;DHT22;19640;50.944;5.260;2023-02-15T05:47:50;-0.90;99.90
33269;DHT22;19640;50.944;5.260;2023-02-15T05:50:16;-1.00;99.90
33269;DHT22;19640;50.944;5.260;2023-02-15T05:52:42;-1.00;99.90
33269;DHT22;19640;50.944;5.260;2023-02-15T05:55:08;-1.00;99.90
33269;DHT22;19640;50.944;5.260;2023-02-15T05:57:38;-0.90;99.90
33269;DHT22;19640;50.944;5.260;2023-02-15T06:00:05;-0.90;99.90
33269;DHT22;19640;50.944;5.260;2023-02-15T06:02:37;-0.80;99.90
33269;DHT22;19640;50.944;5.260;2023-02-15T06:05:04;-0.60;99.90
33269;DHT22;19640;50.944;5.260;2023-02-15T06:07:30;-0.50;99.90
33269;DHT22;19640;50.944;5.260;2023-02-15T06:09:56;-0.60;99.90
33269;DHT22;19640;50.944;5.260;2023-02-15T06:12:21;-0.70;99.90
33269;DHT22;19640;50.944;5.260;2023-02-15T06:14:47;-0.80;99.90
33269;DHT22;19640;50.944;5.260;2023-02-15T06:17:13;-0.80;99.90
33269;DHT22;19640;50.944;5.260;2023-02-15T06:19:38;-0.90;99.90
33269;DHT22;19640;50.944;5.260;2023-02-15T06:22:04;-0.90;99.90
33269;DHT22;19640;50.944;5.260;2023-02-15T06:24:31;-1.10;99.90
33269;DHT22;19640;50.944;5.260;2023-02-15T06:26:57;-1.20;99.90
33269;DHT22;19640;50.944;5.260;2023-02-15T06:29:23;-1.00;99.90
33269;DHT22;19640;50.944;5.260;2023-02-15T06:31:49;-1.00;99.90
33269;DHT22;19640;50.944;5.260;2023-02-15T06:34:14;-1.10;99.90
33269;DHT22;19640;50.944;5.260;2023-02-15T06:36:40;-1.10;99.90
33269;DHT22;19640;50.944;5.260;2023-02-15T06:39:06;-1.20;99.90
33269;DHT22;19640;50.944;5.260;2023-02-15T06:41:32;-1.20;99.90
33269;DHT22;19640;50.944;5.260;2023-02-15T06:43:57;-1.20;99.90
33269;DHT22;19640;50.944;5.260;2023-02-15T06:46:23;-1.10;99.90
33269;DHT22;19640;50.944;5.260;2023-02-15T06:48:49;-1.10;99.90
33269;DHT22;19640;50.944;5.260;2023-02-15T06:51:14;-1.00;99.90
33269;DHT22;19640;50.944;5.260;2023-02-15T06:53:40;-0.90;99.90
33269;DHT22;19640;50.944;5.260;2023-02-15T06:56:08;-0.80;99.90
33269;DHT22;19640;50.944;5.260;2023-02-15T06:58:38;-0.80;99.90
33269;DHT22;19640;50.944;5.260;2023-02-15T07:01:05;-0.70;99.90
33269;DHT22;19640;50.944;5.260;2023-02-15T07:03:31;-0.70;99.90
33269;DHT22;19640;50.944;5.260;2023-02-15T07:05:59;-0.70;99.90
33269;DHT22;19640;50.944;5.260;2023-02-15T07:08:26;-0.70;99.90
33269;DHT22;19640;50.944;5.260;2023-02-15T07:10:53;-0.70;99.90
33269;DHT22;19640;50.944;5.260;2023-02-15T07:13:20;-0.70;99.90
33269;DHT22;19640;50.944;5.260;2023-02-15T07:15:46;-0.80;99.90
33269;DHT22;19640;50.944;5.260;2023-02-15T07:18:12;-0.70;99.90
33269;DHT22;19640;50.944;5.260;2023-02-15T07:20:38;-0.60;99.90
33269;DHT22;19640;50.944;5.260;2023-02-15T07:23:07;-0.50;99.90
33269;DHT22;19640;50.944;5.260;2023-02-15T07:25:33;-0.30;99.90
33269;DHT22;19640;50.944;5.260;2023-02-15T07:28:01;-0.20;99.90
33269;DHT22;19640;50.944;5.260;2023-02-15T07:30:28;-0.20;99.90
33269;DHT22;19640;50.944;5.260;2023-02-15T07:32:59;0.10;99.90
33269;DHT22;19640;50.944;5.260;2023-02-15T07:35:51;0.40;99.90
33269;DHT22;19640;50.944;5.260;2023-02-15T07:38:18;0.60;99.90
33269;DHT22;19640;50.944;5.260;2023-02-15T07:40:44;0.80;99.90
33269;DHT22;19640;50.944;5.260;2023-02-15T07:43:10;0.90;99.90
33269;DHT22;19640;50.944;5.260;2023-02-15T07:45:36;0.90;99.90
33269;DHT22;19640;50.944;5.260;2023-02-15T07:48:03;1.00;99.90
33269;DHT22;19640;50.944;5.260;2023-02-15T07:50:29;1.30;99.90
33269;DHT22;19640;50.944;5.260;2023-02-15T07:52:54;1.10;99.90
33269;DHT22;19640;50.944;5.260;2023-02-15T07:55:20;1.20;99.90
33269;DHT22;19640;50.944;5.260;2023-02-15T07:57:47;1.50;99.90
33269;DHT22;19640;50.944;5.260;2023-02-15T08:00:18;2.00;99.90
33269;DHT22;19640;50.944;5.260;2023-02-15T08:02:49;2.30;99.90
33269;DHT22;19640;50.944;5.260;2023-02-15T08:05:35;2.40;99.90
33269;DHT22;19640;50.944;5.260;2023-02-15T08:08:00;2.50;99.90
33269;DHT22;19640;50.944;5.260;2023-02-15T08:10:26;2.50;99.90
33269;DHT22;19640;50.944;5.260;2023-02-15T08:13:12;2.60;99.90
33269;DHT22;19640;50.944;5.260;2023-02-15T08:15:37;2.70;99.90
33269;DHT22;19640;50.944;5.260;2023-02-15T08:18:03;2.80;99.90
33269;DHT22;19640;50.944;5.260;2023-02-15T08:20:29;3.00;99.90
33269;DHT22;19640;50.944;5.260;2023-02-15T08:22:54;2.90;99.90
33269;DHT22;19640;50.944;5.260;2023-02-15T08:25:20;2.70;99.90
33269;DHT22;19640;50.944;5.260;2023-02-15T08:27:46;2.60;99.90
33269;DHT22;19640;50.944;5.260;2023-02-15T08:30:12;2.60;99.90
33269;DHT22;19640;50.944;5.260;2023-02-15T08:32:39;2.70;99.90
33269;DHT22;19640;50.944;5.260;2023-02-15T08:35:05;2.80;99.90
33269;DHT22;19640;50.944;5.260;2023-02-15T08:37:31;2.90;99.90
33269;DHT22;19640;50.944;5.260;2023-02-15T08:39:56;2.90;99.90
33269;DHT22;19640;50.944;5.260;2023-02-15T08:42:22;2.90;99.90
33269;DHT22;19640;50.944;5.260;2023-02-15T08:44:48;3.00;99.90
33269;DHT22;19640;50.944;5.260;2023-02-15T08:47:15;3.00;99.90
33269;DHT22;19640;50.944;5.260;2023-02-15T08:49:41;3.20;99.90
33269;DHT22;19640;50.944;5.260;2023-02-15T08:52:07;3.30;99.90
33269;DHT22;19640;50.944;5.260;2023-02-15T08:54:32;3.50;99.90
33269;DHT22;19640;50.944;5.260;2023-02-15T08:56:58;3.50;99.90
33269;DHT22;19640;50.944;5.260;2023-02-15T08:59:25;3.60;99.90
33269;DHT22;19640;50.944;5.260;2023-02-15T09:01:53;3.70;99.90
33269;DHT22;19640;50.944;5.260;2023-02-15T09:04:19;3.90;99.90
33269;DHT22;19640;50.944;5.260;2023-02-15T09:06:46;4.10;99.90
33269;DHT22;19640;50.944;5.260;2023-02-15T09:09:12;4.20;99.90
33269;DHT22;19640;50.944;5.260;2023-02-15T09:11:41;4.30;99.90
33269;DHT22;19640;50.944;5.260;2023-02-15T09:14:09;4.50;99.90
33269;DHT22;19640;50.944;5.260;2023-02-15T09:16:36;4.70;99.90
33269;DHT22;19640;50.944;5.260;2023-02-15T09:19:03;4.90;99.90
33269;DHT22;19640;50.944;5.260;2023-02-15T09:21:35;5.20;99.90
33269;DHT22;19640;50.944;5.260;2023-02-15T09:24:06;5.20;99.90
33269;DHT22;19640;50.944;5.260;2023-02-15T09:26:36;5.30;99.90
33269;DHT22;19640;50.944;5.260;2023-02-15T09:29:02;5.70;99.90
33269;DHT22;19640;50.944;5.260;2023-02-15T09:31:31;6.20;99.90
33269;DHT22;19640;50.944;5.260;2023-02-15T09:33:58;6.30;99.90
33269;DHT22;19640;50.944;5.260;2023-02-15T09:36:34;6.40;99.90
33269;DHT22;19640;50.944;5.260;2023-02-15T09:39:18;6.50;99.90
33269;DHT22;19640;50.944;5.260;2023-02-15T09:59:06;7.40;99.90
33269;DHT22;19640;50.944;5.260;2023-02-15T10:15:36;8.90;99.90
33269;DHT22;19640;50.944;5.260;2023-02-15T10:28:51;9.50;99.90
33269;DHT22;19640;50.944;5.260;2023-02-15T10:44:50;10.30;99.90
33269;DHT22;19640;50.944;5.260;2023-02-15T10:59:09;10.70;99.90
33269;DHT22;19640;50.944;5.260;2023-02-15T11:04:42;11.10;99.90
33269;DHT22;19640;50.944;5.260;2023-02-15T11:10:19;11.50;99.90
33269;DHT22;19640;50.944;5.260;2023-02-15T11:12:37;11.50;99.90
33269;DHT22;19640;50.944;5.260;2023-02-15T11:17:45;11.80;99.90
33269;DHT22;19640;50.944;5.260;2023-02-15T11:22:48;11.90;99.90
33269;DHT22;19640;50.944;5.260;2023-02-15T11:25:22;12.00;99.90
33269;DHT22;19640;50.944;5.260;2023-02-15T11:27:49;11.90;99.90
33269;DHT22;19640;50.944;5.260;2023-02-15T11:30:20;11.90;99.90
33269;DHT22;19640;50.944;5.260;2023-02-15T11:32:50;12.00;99.90
33269;DHT22;19640;50.944;5.260;2023-02-15T11:35:31;12.20;99.90
33269;DHT22;19640;50.944;5.260;2023-02-15T11:38:22;12.10;99.90
33269;DHT22;19640;50.944;5.260;2023-02-15T11:41:22;12.20;99.90
33269;DHT22;19640;50.944;5.260;2023-02-15T11:44:07;12.30;99.90
33269;DHT22;19640;50.944;5.260;2023-02-15T11:46:37;12.30;99.90
33269;DHT22;19640;50.944;5.260;2023-02-15T11:49:21;12.40;99.90
33269;DHT22;19640;50.944;5.260;2023-02-15T11:51:47;12.50;99.90
33269;DHT22;19640;50.944;5.260;2023-02-15T11:54:12;12.60;99.90
33269;DHT22;19640;50.944;5.260;2023-02-15T11:56:38;12.70;99.90
33269;DHT22;19640;50.944;5.260;2023-02-15T11:59:09;12.60;99.90
33269;DHT22;19640;50.944;5.260;2023-02-15T12:01:45;12.60;99.90
33269;DHT22;19640;50.944;5.260;2023-02-15T12:04:21;12.60;99.90
33269;DHT22;19640;50.944;5.260;2023-02-15T12:07:13;12.60;99.90
33269;DHT22;19640;50.944;5.260;2023-02-15T12:09:55;12.50;99.90
33269;DHT22;19640;50.944;5.260;2023-02-15T12:12:29;12.50;99.90
33269;DHT22;19640;50.944;5.260;2023-02-15T12:15:00;12.60;99.90
33269;DHT22;19640;50.944;5.260;2023-02-15T12:17:52;12.80;99.90
33269;DHT22;19640;50.944;5.260;2023-02-15T12:20:21;12.70;99.90
33269;DHT22;19640;50.944;5.260;2023-02-15T12:22:53;12.80;99.90
33269;DHT22;19640;50.944;5.260;2023-02-15T12:25:30;12.80;99.90
33269;DHT22;19640;50.944;5.260;2023-02-15T12:27:58;12.80;99.90
33269;DHT22;19640;50.944;5.260;2023-02-15T12:30:32;13.00;99.90
33269;DHT22;19640;50.944;5.260;2023-02-15T12:33:15;13.20;99.90
33269;DHT22;19640;50.944;5.260;2023-02-15T12:35:43;13.20;99.90
33269;DHT22;19640;50.944;5.260;2023-02-15T12:40:35;13.40;99.90
33269;DHT22;19640;50.944;5.260;2023-02-15T12:43:01;13.30;99.90
33269;DHT22;19640;50.944;5.260;2023-02-15T12:45:35;13.10;99.90
33269;DHT22;19640;50.944;5.260;2023-02-15T12:48:21;13.10;99.90
33269;DHT22;19640;50.944;5.260;2023-02-15T12:50:48;13.20;99.90
33269;DHT22;19640;50.944;5.260;2023-02-15T12:53:22;13.30;99.90
33269;DHT22;19640;50.944;5.260;2023-02-15T12:55:58;13.20;99.90
33269;DHT22;19640;50.944;5.260;2023-02-15T12:58:26;13.10;99.90
33269;DHT22;19640;50.944;5.260;2023-02-15T13:01:14;13.30;99.90
33269;DHT22;19640;50.944;5.260;2023-02-15T13:06:21;13.10;99.90
33269;DHT22;19640;50.944;5.260;2023-02-15T13:08:53;13.20;99.90
33269;DHT22;19640;50.944;5.260;2023-02-15T13:11:26;13.30;99.90
33269;DHT22;19640;50.944;5.260;2023-02-15T13:13:58;13.20;99.90
33269;DHT22;19640;50.944;5.260;2023-02-15T13:16:39;13.20;99.90
33269;DHT22;19640;50.944;5.260;2023-02-15T13:19:29;13.00;99.90
33269;DHT22;19640;50.944;5.260;2023-02-15T13:21:58;13.10;99.90
33269;DHT22;19640;50.944;5.260;2023-02-15T13:24:39;13.00;99.90
33269;DHT22;19640;50.944;5.260;2023-02-15T13:27:07;12.80;99.90
33269;DHT22;19640;50.944;5.260;2023-02-15T13:29:37;12.90;99.90
33269;DHT22;19640;50.944;5.260;2023-02-15T13:32:15;12.90;99.90
33269;DHT22;19640;50.944;5.260;2023-02-15T13:34:45;12.90;99.90
33269;DHT22;19640;50.944;5.260;2023-02-15T13:37:20;12.90;99.90
33269;DHT22;19640;50.944;5.260;2023-02-15T13:39:48;13.10;99.90
33269;DHT22;19640;50.944;5.260;2023-02-15T13:47:32;13.20;99.90
33269;DHT22;19640;50.944;5.260;2023-02-15T13:55:53;13.20;99.90
33269;DHT22;19640;50.944;5.260;2023-02-15T14:01:11;13.00;99.90
33269;DHT22;19640;50.944;5.260;2023-02-15T14:19:42;13.60;99.90
33269;DHT22;19640;50.944;5.260;2023-02-15T14:30:31;13.90;99.90
33269;DHT22;19640;50.944;5.260;2023-02-15T14:33:06;13.80;99.90
33269;DHT22;19640;50.944;5.260;2023-02-15T14:35:33;13.90;99.90
33269;DHT22;19640;50.944;5.260;2023-02-15T14:40:34;14.00;99.90
33269;DHT22;19640;50.944;5.260;2023-02-15T14:48:47;13.70;99.90
33269;DHT22;19640;50.944;5.260;2023-02-15T14:56:42;13.30;99.90
33269;DHT22;19640;50.944;5.260;2023-02-15T14:59:18;13.30;99.90
33269;DHT22;19640;50.944;5.260;2023-02-15T15:07:50;13.40;99.90
33269;DHT22;19640;50.944;5.260;2023-02-15T15:12:52;13.20;99.90
33269;DHT22;19640;50.944;5.260;2023-02-15T15:20:54;13.20;99.90
33269;DHT22;19640;50.944;5.260;2023-02-15T15:26:21;13.30;99.90
33269;DHT22;19640;50.944;5.260;2023-02-15T15:40:01;13.10;99.90
33269;DHT22;19640;50.944;5.260;2023-02-15T15:48:37;13.20;99.90
33269;DHT22;19640;50.944;5.260;2023-02-15T15:51:18;12.90;99.90
33269;DHT22;19640;50.944;5.260;2023-02-15T15:53:47;12.90;99.90
33269;DHT22;19640;50.944;5.260;2023-02-15T15:56:28;12.90;99.90
33269;DHT22;19640;50.944;5.260;2023-02-15T15:59:05;12.80;99.90
33269;DHT22;19640;50.944;5.260;2023-02-15T16:01:39;12.70;99.90
33269;DHT22;19640;50.944;5.260;2023-02-15T16:04:12;12.70;99.90
33269;DHT22;19640;50.944;5.260;2023-02-15T16:06:39;12.70;99.90
33269;DHT22;19640;50.944;5.260;2023-02-15T16:09:13;12.60;99.90
33269;DHT22;19640;50.944;5.260;2023-02-15T16:11:39;12.60;99.90
33269;DHT22;19640;50.944;5.260;2023-02-15T16:16:54;12.20;99.90
33269;DHT22;19640;50.944;5.260;2023-02-15T16:19:26;12.30;99.90
33269;DHT22;19640;50.944;5.260;2023-02-15T16:21:53;12.20;99.90
33269;DHT22;19640;50.944;5.260;2023-02-15T16:29:39;12.10;99.90
33269;DHT22;19640;50.944;5.260;2023-02-15T16:34:57;12.10;99.90
33269;DHT22;19640;50.944;5.260;2023-02-15T16:37:25;11.80;99.90
33269;DHT22;19640;50.944;5.260;2023-02-15T16:39:53;11.70;99.90
33269;DHT22;19640;50.944;5.260;2023-02-15T16:42:20;11.50;99.90
33269;DHT22;19640;50.944;5.260;2023-02-15T16:44:50;11.40;99.90
33269;DHT22;19640;50.944;5.260;2023-02-15T16:47:21;11.30;99.90
33269;DHT22;19640;50.944;5.260;2023-02-15T16:49:50;11.30;99.90
33269;DHT22;19640;50.944;5.260;2023-02-15T16:52:23;11.20;99.90
33269;DHT22;19640;50.944;5.260;2023-02-15T16:54:59;11.30;99.90
33269;DHT22;19640;50.944;5.260;2023-02-15T16:57:34;11.20;99.90
33269;DHT22;19640;50.944;5.260;2023-02-15T17:00:04;10.80;99.90
33269;DHT22;19640;50.944;5.260;2023-02-15T17:02:32;10.70;99.90
33269;DHT22;19640;50.944;5.260;2023-02-15T17:07:42;10.60;99.90
33269;DHT22;19640;50.944;5.260;2023-02-15T17:10:33;10.50;99.90
33269;DHT22;19640;50.944;5.260;2023-02-15T17:13:03;10.10;99.90
33269;DHT22;19640;50.944;5.260;2023-02-15T17:15:35;10.10;99.90
33269;DHT22;19640;50.944;5.260;2023-02-15T17:18:04;9.90;99.90
33269;DHT22;19640;50.944;5.260;2023-02-15T17:20:32;9.80;99.90
33269;DHT22;19640;50.944;5.260;2023-02-15T17:22:59;9.70;99.90
33269;DHT22;19640;50.944;5.260;2023-02-15T17:25:37;9.60;99.90
33269;DHT22;19640;50.944;5.260;2023-02-15T17:28:04;9.40;99.90
33269;DHT22;19640;50.944;5.260;2023-02-15T17:30:33;9.20;99.90
33269;DHT22;19640;50.944;5.260;2023-02-15T17:33:03;8.80;99.90
33269;DHT22;19640;50.944;5.260;2023-02-15T17:35:30;8.60;99.90
33269;DHT22;19640;50.944;5.260;2023-02-15T17:38:13;8.50;99.90
33269;DHT22;19640;50.944;5.260;2023-02-15T17:40:40;8.20;99.90
33269;DHT22;19640;50.944;5.260;2023-02-15T17:43:05;8.00;99.90
33269;DHT22;19640;50.944;5.260;2023-02-15T17:45:34;7.60;99.90
33269;DHT22;19640;50.944;5.260;2023-02-15T17:48:03;7.50;99.90
33269;DHT22;19640;50.944;5.260;2023-02-15T17:50:29;7.40;99.90
33269;DHT22;19640;50.944;5.260;2023-02-15T17:52:56;7.10;99.90
33269;DHT22;19640;50.944;5.260;2023-02-15T17:55:24;6.80;99.90
33269;DHT22;19640;50.944;5.260;2023-02-15T17:58:14;6.60;99.90
33269;DHT22;19640;50.944;5.260;2023-02-15T18:00:48;6.50;99.90
33269;DHT22;19640;50.944;5.260;2023-02-15T18:03:48;6.50;99.90
33269;DHT22;19640;50.944;5.260;2023-02-15T18:06:35;6.80;99.90
33269;DHT22;19640;50.944;5.260;2023-02-15T18:09:21;6.50;99.90
33269;DHT22;19640;50.944;5.260;2023-02-15T18:12:19;5.90;99.90
33269;DHT22;19640;50.944;5.260;2023-02-15T18:14:46;5.80;99.90
33269;DHT22;19640;50.944;5.260;2023-02-15T18:17:13;5.90;99.90
33269;DHT22;19640;50.944;5.260;2023-02-15T18:19:41;5.90;99.90
33269;DHT22;19640;50.944;5.260;2023-02-15T18:22:11;5.80;99.90
33269;DHT22;19640;50.944;5.260;2023-02-15T18:24:38;5.90;99.90
33269;DHT22;19640;50.944;5.260;2023-02-15T18:27:04;5.80;99.90
33269;DHT22;19640;50.944;5.260;2023-02-15T18:29:30;5.90;99.90
33269;DHT22;19640;50.944;5.260;2023-02-15T18:31:58;5.80;99.90
33269;DHT22;19640;50.944;5.260;2023-02-15T18:34:29;5.70;99.90
33269;DHT22;19640;50.944;5.260;2023-02-15T18:36:57;5.90;99.90
33269;DHT22;19640;50.944;5.260;2023-02-15T18:39:30;5.90;99.90
33269;DHT22;19640;50.944;5.260;2023-02-15T18:41:58;6.10;99.90
33269;DHT22;19640;50.944;5.260;2023-02-15T18:44:25;5.90;99.90
33269;DHT22;19640;50.944;5.260;2023-02-15T18:46:51;5.90;99.90
33269;DHT22;19640;50.944;5.260;2023-02-15T18:49:16;6.10;99.90
33269;DHT22;19640;50.944;5.260;2023-02-15T18:51:43;6.00;99.90
33269;DHT22;19640;50.944;5.260;2023-02-15T18:54:20;5.90;99.90
33269;DHT22;19640;50.944;5.260;2023-02-15T18:56:54;5.90;99.90
33269;DHT22;19640;50.944;5.260;2023-02-15T18:59:22;5.80;99.90
33269;DHT22;19640;50.944;5.260;2023-02-15T19:01:48;5.90;99.90
33269;DHT22;19640;50.944;5.260;2023-02-15T19:04:14;5.90;99.90
33269;DHT22;19640;50.944;5.260;2023-02-15T19:06:43;5.60;99.90
33269;DHT22;19640;50.944;5.260;2023-02-15T19:09:15;5.40;99.90
33269;DHT22;19640;50.944;5.260;2023-02-15T19:11:43;5.70;99.90
33269;DHT22;19640;50.944;5.260;2023-02-15T19:14:23;5.90;99.90
33269;DHT22;19640;50.944;5.260;2023-02-15T19:16:49;6.20;99.90
33269;DHT22;19640;50.944;5.260;2023-02-15T19:19:15;6.40;99.90
33269;DHT22;19640;50.944;5.260;2023-02-15T19:21:41;6.50;99.90
33269;DHT22;19640;50.944;5.260;2023-02-15T19:24:13;6.70;99.90
33269;DHT22;19640;50.944;5.260;2023-02-15T19:26:41;6.80;99.90